sensor_id;sensor_type;location;lat;lon;timestamp;temperature;humidity
7784;DHT22;19359;51.402;6.778;2023-10-19T00:00:20;11.70;1.00
7784;DHT22;19359;51.402;6.778;2023-10-19T00:05:15;11.60;1.00
7784;DHT22;19359;51.402;6.778;2023-10-19T00:07:41;11.80;1.00
7784;DHT22;19359;51.402;6.778;2023-10-19T00:15:03;11.80;1.00
7784;DHT22;19359;51.402;6.778;2023-10-19T00:19:58;11.90;1.00
7784;DHT22;19359;51.402;6.778;2023-10-19T00:25:14;12.00;1.00
7784;DHT22;19359;51.402;6.778;2023-10-19T00:35:05;11.90;1.00
7784;DHT22;19359;51.402;6.778;2023-10-19T00:43:03;12.20;99.90
7784;DHT22;19359;51.402;6.778;2023-10-19T00:48:07;12.00;1.00
7784;DHT22;19359;51.402;6.778;2023-10-19T00:50:37;12.10;99.90
7784;DHT22;19359;51.402;6.778;2023-10-19T00:53:05;12.20;99.90
7784;DHT22;19359;51.402;6.778;2023-10-19T00:55:34;12.10;1.00
7784;DHT22;19359;51.402;6.778;2023-10-19T01:00:35;12.10;1.00
7784;DHT22;19359;51.402;6.778;2023-10-19T01:03:10;12.10;1.00
7784;DHT22;19359;51.402;6.778;2023-10-19T01:10:50;12.20;1.00
7784;DHT22;19359;51.402;6.778;2023-10-19T01:13:18;12.10;1.00
7784;DHT22;19359;51.402;6.778;2023-10-19T01:15:53;12.20;1.00
7784;DHT22;19359;51.402;6.778;2023-10-19T01:18:21;12.20;99.90
7784;DHT22;19359;51.402;6.778;2023-10-19T01:20:54;12.20;99.90
7784;DHT22;19359;51.402;6.778;2023-10-19T01:23:23;12.40;99.90
7784;DHT22;19359;51.402;6.778;2023-10-19T01:25:54;12.30;1.00
7784;DHT22;19359;51.402;6.778;2023-10-19T01:28:32;12.20;99.90
7784;DHT22;19359;51.402;6.778;2023-10-19T01:31:10;12.30;99.90
7784;DHT22;19359;51.402;6.778;2023-10-19T01:33:41;12.30;99.90
7784;DHT22;19359;51.402;6.778;2023-10-19T01:38:42;12.40;16.00
7784;DHT22;19359;51.402;6.778;2023-10-19T01:43:46;12.40;1.00
7784;DHT22;19359;51.402;6.778;2023-10-19T01:46:15;12.40;99.90
7784;DHT22;19359;51.402;6.778;2023-10-19T01:48:48;12.50;1.00
7784;DHT22;19359;51.402;6.778;2023-10-19T01:51:15;12.00;99.90
7784;DHT22;19359;51.402;6.778;2023-10-19T01:53:43;12.40;99.90
7784;DHT22;19359;51.402;6.778;2023-10-19T01:56:10;12.50;1.00
7784;DHT22;19359;51.402;6.778;2023-10-19T01:58:36;12.50;99.90
7784;DHT22;19359;51.402;6.778;2023-10-19T02:01:05;12.50;99.90
7784;DHT22;19359;51.402;6.778;2023-10-19T02:06:09;12.50;99.90
7784;DHT22;19359;51.402;6.778;2023-10-19T02:08:45;12.50;99.90
7784;DHT22;19359;51.402;6.778;2023-10-19T02:23:32;12.50;1.00
7784;DHT22;19359;51.402;6.778;2023-10-19T02:26:02;12.50;99.90
7784;DHT22;19359;51.402;6.778;2023-10-19T02:28:29;12.50;99.90
7784;DHT22;19359;51.402;6.778;2023-10-19T02:30:58;12.50;1.00
7784;DHT22;19359;51.402;6.778;2023-10-19T02:43:19;12.70;1.00
7784;DHT22;19359;51.402;6.778;2023-10-19T02:48:14;12.80;1.00
7784;DHT22;19359;51.402;6.778;2023-10-19T02:50:41;12.70;1.00
7784;DHT22;19359;51.402;6.778;2023-10-19T02:53:07;12.80;1.00
7784;DHT22;19359;51.402;6.778;2023-10-19T02:58:06;12.80;1.00
7784;DHT22;19359;51.402;6.778;2023-10-19T03:00:36;13.10;1.00
7784;DHT22;19359;51.402;6.778;2023-10-19T03:03:04;13.00;99.90
7784;DHT22;19359;51.402;6.778;2023-10-19T03:05:30;13.00;99.90
7784;DHT22;19359;51.402;6.778;2023-10-19T03:08:00;13.00;99.90
7784;DHT22;19359;51.402;6.778;2023-10-19T03:10:31;13.00;99.90
7784;DHT22;19359;51.402;6.778;2023-10-19T03:13:07;13.10;99.90
7784;DHT22;19359;51.402;6.778;2023-10-19T03:15:36;13.20;1.00
7784;DHT22;19359;51.402;6.778;2023-10-19T03:18:05;13.00;99.90
7784;DHT22;19359;51.402;6.778;2023-10-19T03:20:32;13.00;1.00
7784;DHT22;19359;51.402;6.778;2023-10-19T03:25:27;12.90;99.90
7784;DHT22;19359;51.402;6.778;2023-10-19T03:30:43;13.10;99.90
7784;DHT22;19359;51.402;6.778;2023-10-19T03:33:10;13.10;99.90
7784;DHT22;19359;51.402;6.778;2023-10-19T03:35:38;13.00;99.90
7784;DHT22;19359;51.402;6.778;2023-10-19T03:43:13;13.10;99.90
7784;DHT22;19359;51.402;6.778;2023-10-19T03:45:48;13.00;48.10
7784;DHT22;19359;51.402;6.778;2023-10-19T03:48:18;13.10;93.90
7784;DHT22;19359;51.402;6.778;2023-10-19T03:50:53;13.10;1.00
7784;DHT22;19359;51.402;6.778;2023-10-19T03:53:21;13.10;1.00
7784;DHT22;19359;51.402;6.778;2023-10-19T03:55:48;13.10;1.00
7784;DHT22;19359;51.402;6.778;2023-10-19T03:58:15;13.00;1.00
7784;DHT22;19359;51.402;6.778;2023-10-19T04:00:47;13.10;1.00
7784;DHT22;19359;51.402;6.778;2023-10-19T04:03:15;13.10;1.00
7784;DHT22;19359;51.402;6.778;2023-10-19T04:05:43;13.10;1.00
7784;DHT22;19359;51.402;6.778;2023-10-19T04:10:40;13.10;1.00
7784;DHT22;19359;51.402;6.778;2023-10-19T04:13:12;13.20;1.00
7784;DHT22;19359;51.402;6.778;2023-10-19T04:15:39;13.20;1.00
7784;DHT22;19359;51.402;6.778;2023-10-19T04:18:08;13.10;1.00
7784;DHT22;19359;51.402;6.778;2023-10-19T04:20:35;13.20;1.00
7784;DHT22;19359;51.402;6.778;2023-10-19T04:23:08;13.20;1.00
7784;DHT22;19359;51.402;6.778;2023-10-19T04:28:06;13.20;1.00
7784;DHT22;19359;51.402;6.778;2023-10-19T04:30:34;13.30;1.00
7784;DHT22;19359;51.402;6.778;2023-10-19T04:35:36;13.20;1.00
7784;DHT22;19359;51.402;6.778;2023-10-19T04:38:04;13.20;1.00
7784;DHT22;19359;51.402;6.778;2023-10-19T04:40:33;13.20;1.00
7784;DHT22;19359;51.402;6.778;2023-10-19T04:43:02;13.20;1.00
7784;DHT22;19359;51.402;6.778;2023-10-19T04:45:30;13.20;1.00
7784;DHT22;19359;51.402;6.778;2023-10-19T04:52:54;13.10;1.00
7784;DHT22;19359;51.402;6.778;2023-10-19T04:55:20;13.30;1.00
7784;DHT22;19359;51.402;6.778;2023-10-19T04:57:47;13.40;1.00
7784;DHT22;19359;51.402;6.778;2023-10-19T05:00:15;13.10;1.00
7784;DHT22;19359;51.402;6.778;2023-10-19T05:02:42;13.10;1.00
7784;DHT22;19359;51.402;6.778;2023-10-19T05:05:09;13.00;1.00
7784;DHT22;19359;51.402;6.778;2023-10-19T05:07:36;13.10;1.00
7784;DHT22;19359;51.402;6.778;2023-10-19T05:10:06;13.00;1.00
7784;DHT22;19359;51.402;6.778;2023-10-19T05:12:33;13.10;1.00
7784;DHT22;19359;51.402;6.778;2023-10-19T05:15:00;13.10;1.00
7784;DHT22;19359;51.402;6.778;2023-10-19T05:17:26;13.10;1.00
7784;DHT22;19359;51.402;6.778;2023-10-19T05:19:53;13.20;1.00
7784;DHT22;19359;51.402;6.778;2023-10-19T05:24:50;13.10;1.00
7784;DHT22;19359;51.402;6.778;2023-10-19T05:27:18;12.90;1.00
7784;DHT22;19359;51.402;6.778;2023-10-19T05:29:45;13.20;1.00
7784;DHT22;19359;51.402;6.778;2023-10-19T05:32:12;13.20;1.00
7784;DHT22;19359;51.402;6.778;2023-10-19T05:34:39;13.00;1.00
7784;DHT22;19359;51.402;6.778;2023-10-19T05:37:05;13.20;1.00
7784;DHT22;19359;51.402;6.778;2023-10-19T05:39:34;13.10;1.00
7784;DHT22;19359;51.402;6.778;2023-10-19T05:42:01;13.20;1.00
7784;DHT22;19359;51.402;6.778;2023-10-19T05:44:31;13.10;1.00
7784;DHT22;19359;51.402;6.778;2023-10-19T05:46:58;13.00;1.00
7784;DHT22;19359;51.402;6.778;2023-10-19T05:49:24;11.80;1.00
7784;DHT22;19359;51.402;6.778;2023-10-19T05:51:51;12.90;1.00
7784;DHT22;19359;51.402;6.778;2023-10-19T05:56:49;12.90;99.90
7784;DHT22;19359;51.402;6.778;2023-10-19T05:59:15;12.70;1.00
7784;DHT22;19359;51.402;6.778;2023-10-19T06:01:44;13.10;1.00
7784;DHT22;19359;51.402;6.778;2023-10-19T06:04:12;13.00;1.00
7784;DHT22;19359;51.402;6.778;2023-10-19T06:09:06;13.10;1.00
7784;DHT22;19359;51.402;6.778;2023-10-19T06:11:34;13.10;1.00
7784;DHT22;19359;51.402;6.778;2023-10-19T06:14:03;13.10;1.00
7784;DHT22;19359;51.402;6.778;2023-10-19T06:19:01;13.10;1.00
7784;DHT22;19359;51.402;6.778;2023-10-19T06:21:28;13.00;1.00
7784;DHT22;19359;51.402;6.778;2023-10-19T06:23:55;13.10;1.00
7784;DHT22;19359;51.402;6.778;2023-10-19T06:26:23;13.10;1.00
7784;DHT22;19359;51.402;6.778;2023-10-19T06:28:49;13.30;1.00
7784;DHT22;19359;51.402;6.778;2023-10-19T06:31:16;12.90;1.00
7784;DHT22;19359;51.402;6.778;2023-10-19T06:33:44;13.20;1.00
7784;DHT22;19359;51.402;6.778;2023-10-19T06:36:12;13.20;1.00
7784;DHT22;19359;51.402;6.778;2023-10-19T06:38:39;13.10;1.00
7784;DHT22;19359;51.402;6.778;2023-10-19T06:41:10;13.20;1.00
7784;DHT22;19359;51.402;6.778;2023-10-19T06:43:37;13.20;1.00
7784;DHT22;19359;51.402;6.778;2023-10-19T06:46:04;13.20;1.00
7784;DHT22;19359;51.402;6.778;2023-10-19T06:48:31;13.20;1.00
7784;DHT22;19359;51.402;6.778;2023-10-19T06:50:58;13.30;7.80
7784;DHT22;19359;51.402;6.778;2023-10-19T06:53:27;13.30;92.90
7784;DHT22;19359;51.402;6.778;2023-10-19T06:55:54;13.30;86.10
7784;DHT22;19359;51.402;6.778;2023-10-19T06:58:21;13.30;86.50
7784;DHT22;19359;51.402;6.778;2023-10-19T07:03:25;13.40;22.50
7784;DHT22;19359;51.402;6.778;2023-10-19T07:05:53;13.40;1.00
7784;DHT22;19359;51.402;6.778;2023-10-19T07:08:21;13.40;1.00
7784;DHT22;19359;51.402;6.778;2023-10-19T07:10:49;13.50;1.00
7784;DHT22;19359;51.402;6.778;2023-10-19T07:13:16;13.50;1.00
7784;DHT22;19359;51.402;6.778;2023-10-19T07:15:45;13.50;1.00
7784;DHT22;19359;51.402;6.778;2023-10-19T07:18:12;13.50;1.00
7784;DHT22;19359;51.402;6.778;2023-10-19T07:20:39;14.10;1.00
7784;DHT22;19359;51.402;6.778;2023-10-19T07:23:08;13.60;1.00
7784;DHT22;19359;51.402;6.778;2023-10-19T07:25:44;13.60;1.00
7784;DHT22;19359;51.402;6.778;2023-10-19T07:28:12;13.60;99.90
7784;DHT22;19359;51.402;6.778;2023-10-19T07:30:40;13.70;1.00
7784;DHT22;19359;51.402;6.778;2023-10-19T07:33:07;13.70;1.00
7784;DHT22;19359;51.402;6.778;2023-10-19T07:35:36;13.60;1.00
7784;DHT22;19359;51.402;6.778;2023-10-19T07:38:05;13.80;1.00
7784;DHT22;19359;51.402;6.778;2023-10-19T07:40:33;13.70;1.00
7784;DHT22;19359;51.402;6.778;2023-10-19T07:45:31;13.80;1.00
7784;DHT22;19359;51.402;6.778;2023-10-19T07:48:00;13.80;99.90
7784;DHT22;19359;51.402;6.778;2023-10-19T07:50:31;13.80;1.00
7784;DHT22;19359;51.402;6.778;2023-10-19T07:52:58;13.80;1.00
7784;DHT22;19359;51.402;6.778;2023-10-19T07:55:25;13.90;1.00
7784;DHT22;19359;51.402;6.778;2023-10-19T07:57:52;13.90;1.00
7784;DHT22;19359;51.402;6.778;2023-10-19T08:00:20;13.90;1.00
7784;DHT22;19359;51.402;6.778;2023-10-19T08:02:51;13.90;1.00
7784;DHT22;19359;51.402;6.778;2023-10-19T08:05:19;14.00;1.00
7784;DHT22;19359;51.402;6.778;2023-10-19T08:07:46;14.00;1.00
7784;DHT22;19359;51.402;6.778;2023-10-19T08:10:15;14.10;99.90
7784;DHT22;19359;51.402;6.778;2023-10-19T08:12:44;14.10;99.90
7784;DHT22;19359;51.402;6.778;2023-10-19T08:15:14;14.20;99.90
7784;DHT22;19359;51.402;6.778;2023-10-19T08:17:42;14.10;99.90
7784;DHT22;19359;51.402;6.778;2023-10-19T08:20:13;14.40;99.90
7784;DHT22;19359;51.402;6.778;2023-10-19T08:25:12;14.60;1.00
7784;DHT22;19359;51.402;6.778;2023-10-19T08:27:40;14.30;1.00
7784;DHT22;19359;51.402;6.778;2023-10-19T08:30:11;14.70;1.00
7784;DHT22;19359;51.402;6.778;2023-10-19T08:32:38;14.80;1.00
7784;DHT22;19359;51.402;6.778;2023-10-19T08:35:06;14.80;1.00
7784;DHT22;19359;51.402;6.778;2023-10-19T08:37:34;14.80;1.00
7784;DHT22;19359;51.402;6.778;2023-10-19T08:40:01;14.80;99.90
7784;DHT22;19359;51.402;6.778;2023-10-19T08:44:57;14.60;99.90
7784;DHT22;19359;51.402;6.778;2023-10-19T08:47:25;14.90;99.90
7784;DHT22;19359;51.402;6.778;2023-10-19T08:49:52;15.00;1.00
7784;DHT22;19359;51.402;6.778;2023-10-19T08:52:21;14.90;99.90
7784;DHT22;19359;51.402;6.778;2023-10-19T08:54:50;14.90;99.90
7784;DHT22;19359;51.402;6.778;2023-10-19T08:57:19;14.90;99.90
7784;DHT22;19359;51.402;6.778;2023-10-19T08:59:46;15.00;1.00
7784;DHT22;19359;51.402;6.778;2023-10-19T09:04:42;15.00;1.00
7784;DHT22;19359;51.402;6.778;2023-10-19T09:07:09;15.00;1.00
7784;DHT22;19359;51.402;6.778;2023-10-19T09:09:36;15.10;99.90
7784;DHT22;19359;51.402;6.778;2023-10-19T09:12:07;15.30;1.00
7784;DHT22;19359;51.402;6.778;2023-10-19T09:14:35;15.50;38.50
7784;DHT22;19359;51.402;6.778;2023-10-19T09:17:06;15.60;99.90
7784;DHT22;19359;51.402;6.778;2023-10-19T09:19:40;15.80;1.00
7784;DHT22;19359;51.402;6.778;2023-10-19T09:22:09;15.90;1.00
7784;DHT22;19359;51.402;6.778;2023-10-19T09:24:43;16.10;1.00
7784;DHT22;19359;51.402;6.778;2023-10-19T09:29:39;16.30;1.00
7784;DHT22;19359;51.402;6.778;2023-10-19T09:32:07;16.60;1.00
7784;DHT22;19359;51.402;6.778;2023-10-19T09:39:29;16.90;99.90
7784;DHT22;19359;51.402;6.778;2023-10-19T09:42:00;17.10;99.90
7784;DHT22;19359;51.402;6.778;2023-10-19T09:44:34;17.20;1.00
7784;DHT22;19359;51.402;6.778;2023-10-19T09:47:09;17.30;1.00
7784;DHT22;19359;51.402;6.778;2023-10-19T09:54:46;17.10;1.00
7784;DHT22;19359;51.402;6.778;2023-10-19T09:57:18;17.00;1.00
7784;DHT22;19359;51.402;6.778;2023-10-19T09:59:53;17.00;3.50
7784;DHT22;19359;51.402;6.778;2023-10-19T10:02:23;17.00;1.00
7784;DHT22;19359;51.402;6.778;2023-10-19T10:04:51;17.10;1.00
7784;DHT22;19359;51.402;6.778;2023-10-19T10:07:18;17.10;1.00
7784;DHT22;19359;51.402;6.778;2023-10-19T10:12:17;17.40;1.00
7784;DHT22;19359;51.402;6.778;2023-10-19T10:14:55;17.50;1.00
7784;DHT22;19359;51.402;6.778;2023-10-19T10:17:24;17.60;1.00
7784;DHT22;19359;51.402;6.778;2023-10-19T10:19:53;17.70;1.00
7784;DHT22;19359;51.402;6.778;2023-10-19T10:22:22;17.60;99.90
7784;DHT22;19359;51.402;6.778;2023-10-19T10:24:54;17.60;1.00
7784;DHT22;19359;51.402;6.778;2023-10-19T10:27:21;17.80;41.80
7784;DHT22;19359;51.402;6.778;2023-10-19T10:29:57;17.60;39.40
7784;DHT22;19359;51.402;6.778;2023-10-19T10:32:45;17.90;52.90
7784;DHT22;19359;51.402;6.778;2023-10-19T10:38:13;18.10;72.10
7784;DHT22;19359;51.402;6.778;2023-10-19T10:40:43;18.20;1.00
7784;DHT22;19359;51.402;6.778;2023-10-19T10:43:10;18.20;91.80
7784;DHT22;19359;51.402;6.778;2023-10-19T10:48:11;18.40;1.00
7784;DHT22;19359;51.402;6.778;2023-10-19T10:50:38;18.40;1.00
7784;DHT22;19359;51.402;6.778;2023-10-19T10:53:07;18.50;99.90
7784;DHT22;19359;51.402;6.778;2023-10-19T11:00:28;18.30;1.00
7784;DHT22;19359;51.402;6.778;2023-10-19T11:03:04;18.50;11.80
7784;DHT22;19359;51.402;6.778;2023-10-19T11:08:06;18.50;1.00
7784;DHT22;19359;51.402;6.778;2023-10-19T11:15:29;18.90;9.80
7784;DHT22;19359;51.402;6.778;2023-10-19T11:17:56;18.80;1.00
7784;DHT22;19359;51.402;6.778;2023-10-19T11:20:26;18.80;99.90
7784;DHT22;19359;51.402;6.778;2023-10-19T11:22:55;18.80;1.00
7784;DHT22;19359;51.402;6.778;2023-10-19T11:25:24;18.80;1.00
7784;DHT22;19359;51.402;6.778;2023-10-19T11:27:53;18.80;38.70
7784;DHT22;19359;51.402;6.778;2023-10-19T11:30:24;18.60;1.00
7784;DHT22;19359;51.402;6.778;2023-10-19T11:32:51;18.70;99.90
7784;DHT22;19359;51.402;6.778;2023-10-19T11:35:24;18.70;1.00
7784;DHT22;19359;51.402;6.778;2023-10-19T11:37:52;18.70;99.90
7784;DHT22;19359;51.402;6.778;2023-10-19T11:40:20;18.60;1.00
7784;DHT22;19359;51.402;6.778;2023-10-19T11:42:48;18.70;1.00
7784;DHT22;19359;51.402;6.778;2023-10-19T11:45:15;18.60;1.00
7784;DHT22;19359;51.402;6.778;2023-10-19T11:47:42;18.60;1.00
7784;DHT22;19359;51.402;6.778;2023-10-19T11:55:08;18.50;1.00
7784;DHT22;19359;51.402;6.778;2023-10-19T12:00:03;18.50;1.00
7784;DHT22;19359;51.402;6.778;2023-10-19T12:02:35;18.60;99.90
7784;DHT22;19359;51.402;6.778;2023-10-19T12:05:03;18.60;1.00
7784;DHT22;19359;51.402;6.778;2023-10-19T12:07:35;18.70;1.00
7784;DHT22;19359;51.402;6.778;2023-10-19T12:10:04;18.80;99.90
7784;DHT22;19359;51.402;6.778;2023-10-19T12:12:31;19.00;1.00
7784;DHT22;19359;51.402;6.778;2023-10-19T12:14:58;19.00;77.50
7784;DHT22;19359;51.402;6.778;2023-10-19T12:17:24;19.10;1.00
7784;DHT22;19359;51.402;6.778;2023-10-19T12:19:53;19.20;1.00
7784;DHT22;19359;51.402;6.778;2023-10-19T12:22:20;19.20;1.00
7784;DHT22;19359;51.402;6.778;2023-10-19T12:24:47;19.10;1.00
7784;DHT22;19359;51.402;6.778;2023-10-19T12:27:16;19.00;99.90
7784;DHT22;19359;51.402;6.778;2023-10-19T12:29:43;18.90;1.00
7784;DHT22;19359;51.402;6.778;2023-10-19T12:32:10;18.80;1.00
7784;DHT22;19359;51.402;6.778;2023-10-19T12:34:40;18.80;1.00
7784;DHT22;19359;51.402;6.778;2023-10-19T12:37:07;18.60;99.90
7784;DHT22;19359;51.402;6.778;2023-10-19T12:39:35;18.50;1.00
7784;DHT22;19359;51.402;6.778;2023-10-19T12:42:08;18.30;1.00
7784;DHT22;19359;51.402;6.778;2023-10-19T12:44:36;18.60;1.00
7784;DHT22;19359;51.402;6.778;2023-10-19T12:47:07;18.40;1.00
7784;DHT22;19359;51.402;6.778;2023-10-19T12:49:36;18.30;46.30
7784;DHT22;19359;51.402;6.778;2023-10-19T12:52:03;18.30;1.00
7784;DHT22;19359;51.402;6.778;2023-10-19T12:54:30;18.30;4.10
7784;DHT22;19359;51.402;6.778;2023-10-19T12:56:56;18.20;1.00
7784;DHT22;19359;51.402;6.778;2023-10-19T13:01:52;18.10;1.00
7784;DHT22;19359;51.402;6.778;2023-10-19T13:06:50;17.90;11.60
7784;DHT22;19359;51.402;6.778;2023-10-19T13:09:17;17.90;10.00
7784;DHT22;19359;51.402;6.778;2023-10-19T13:11:48;17.80;1.00
7784;DHT22;19359;51.402;6.778;2023-10-19T13:16:44;17.60;99.90
7784;DHT22;19359;51.402;6.778;2023-10-19T13:19:12;17.60;54.30
7784;DHT22;19359;51.402;6.778;2023-10-19T13:21:41;17.50;94.50
7784;DHT22;19359;51.402;6.778;2023-10-19T13:24:09;17.50;99.90
7784;DHT22;19359;51.402;6.778;2023-10-19T13:26:36;17.50;99.90
7784;DHT22;19359;51.402;6.778;2023-10-19T13:29:04;17.50;1.00
7784;DHT22;19359;51.402;6.778;2023-10-19T13:33:58;17.50;99.90
7784;DHT22;19359;51.402;6.778;2023-10-19T13:36:26;17.30;1.00
7784;DHT22;19359;51.402;6.778;2023-10-19T13:41:20;17.50;38.20
7784;DHT22;19359;51.402;6.778;2023-10-19T13:43:47;17.50;99.90
7784;DHT22;19359;51.402;6.778;2023-10-19T13:46:14;17.40;99.90
7784;DHT22;19359;51.402;6.778;2023-10-19T13:48:41;17.40;99.90
7784;DHT22;19359;51.402;6.778;2023-10-19T13:56:08;17.30;99.90
7784;DHT22;19359;51.402;6.778;2023-10-19T13:58:35;17.40;99.90
7784;DHT22;19359;51.402;6.778;2023-10-19T14:03:30;17.40;99.90
7784;DHT22;19359;51.402;6.778;2023-10-19T14:05:57;17.30;99.90
7784;DHT22;19359;51.402;6.778;2023-10-19T14:08:24;17.40;1.00
7784;DHT22;19359;51.402;6.778;2023-10-19T14:10:52;17.40;99.90
7784;DHT22;19359;51.402;6.778;2023-10-19T14:13:18;17.40;99.90
7784;DHT22;19359;51.402;6.778;2023-10-19T14:15:45;17.20;99.90
7784;DHT22;19359;51.402;6.778;2023-10-19T14:18:12;17.50;99.90
7784;DHT22;19359;51.402;6.778;2023-10-19T14:20:39;17.40;99.90
7784;DHT22;19359;51.402;6.778;2023-10-19T14:23:06;17.40;99.90
7784;DHT22;19359;51.402;6.778;2023-10-19T14:25:36;17.40;99.90
7784;DHT22;19359;51.402;6.778;2023-10-19T14:30:33;17.40;99.90
7784;DHT22;19359;51.402;6.778;2023-10-19T14:37:55;17.10;1.00
7784;DHT22;19359;51.402;6.778;2023-10-19T14:40:25;17.10;54.70
7784;DHT22;19359;51.402;6.778;2023-10-19T14:42:54;17.10;99.90
7784;DHT22;19359;51.402;6.778;2023-10-19T14:45:24;17.00;1.00
7784;DHT22;19359;51.402;6.778;2023-10-19T14:47:54;17.00;1.00
7784;DHT22;19359;51.402;6.778;2023-10-19T14:50:22;17.00;99.90
7784;DHT22;19359;51.402;6.778;2023-10-19T14:52:50;16.90;99.90
7784;DHT22;19359;51.402;6.778;2023-10-19T14:55:17;16.90;99.90
7784;DHT22;19359;51.402;6.778;2023-10-19T14:57:46;16.90;99.90
7784;DHT22;19359;51.402;6.778;2023-10-19T15:00:15;16.90;99.90
7784;DHT22;19359;51.402;6.778;2023-10-19T15:02:49;16.90;1.00
7784;DHT22;19359;51.402;6.778;2023-10-19T15:05:17;16.90;99.90
7784;DHT22;19359;51.402;6.778;2023-10-19T15:07:45;16.90;1.00
7784;DHT22;19359;51.402;6.778;2023-10-19T15:10:18;16.80;99.90
7784;DHT22;19359;51.402;6.778;2023-10-19T15:12:45;16.70;1.00
7784;DHT22;19359;51.402;6.778;2023-10-19T15:15:11;16.70;1.00
7784;DHT22;19359;51.402;6.778;2023-10-19T15:17:39;16.70;99.90
7784;DHT22;19359;51.402;6.778;2023-10-19T15:20:09;16.60;1.00
7784;DHT22;19359;51.402;6.778;2023-10-19T15:22:37;16.60;1.00
7784;DHT22;19359;51.402;6.778;2023-10-19T15:25:04;16.60;1.00
7784;DHT22;19359;51.402;6.778;2023-10-19T15:27:33;16.60;1.00
7784;DHT22;19359;51.402;6.778;2023-10-19T15:34:56;16.60;1.00
7784;DHT22;19359;51.402;6.778;2023-10-19T15:37:24;16.50;1.00
7784;DHT22;19359;51.402;6.778;2023-10-19T15:39:51;16.60;1.00
7784;DHT22;19359;51.402;6.778;2023-10-19T15:42:19;16.60;1.00
7784;DHT22;19359;51.402;6.778;2023-10-19T15:44:47;16.50;1.00
7784;DHT22;19359;51.402;6.778;2023-10-19T15:49:47;16.50;1.00
7784;DHT22;19359;51.402;6.778;2023-10-19T15:52:18;16.30;1.00
7784;DHT22;19359;51.402;6.778;2023-10-19T15:54:47;16.40;1.00
7784;DHT22;19359;51.402;6.778;2023-10-19T16:04:36;16.40;1.00
7784;DHT22;19359;51.402;6.778;2023-10-19T16:07:03;16.30;1.00
7784;DHT22;19359;51.402;6.778;2023-10-19T16:09:30;16.20;1.00
7784;DHT22;19359;51.402;6.778;2023-10-19T16:11:58;16.20;1.00
7784;DHT22;19359;51.402;6.778;2023-10-19T16:25:11;15.60;1.00
7784;DHT22;19359;51.402;6.778;2023-10-19T16:27:40;15.60;1.00
7784;DHT22;19359;51.402;6.778;2023-10-19T16:35:06;15.40;1.00
7784;DHT22;19359;51.402;6.778;2023-10-19T16:40:01;15.20;1.00
7784;DHT22;19359;51.402;6.778;2023-10-19T16:42:30;15.10;1.00
7784;DHT22;19359;51.402;6.778;2023-10-19T16:44:59;15.00;1.00
7784;DHT22;19359;51.402;6.778;2023-10-19T16:49:53;14.70;99.90
7784;DHT22;19359;51.402;6.778;2023-10-19T16:52:20;14.60;99.90
7784;DHT22;19359;51.402;6.778;2023-10-19T16:54:47;14.50;99.90
7784;DHT22;19359;51.402;6.778;2023-10-19T16:57:14;14.40;1.00
7784;DHT22;19359;51.402;6.778;2023-10-19T16:59:41;14.30;1.00
7784;DHT22;19359;51.402;6.778;2023-10-19T17:02:09;14.30;1.00
7784;DHT22;19359;51.402;6.778;2023-10-19T17:04:36;14.20;99.90
7784;DHT22;19359;51.402;6.778;2023-10-19T17:07:05;14.20;99.90
7784;DHT22;19359;51.402;6.778;2023-10-19T17:09:33;14.90;99.90
7784;DHT22;19359;51.402;6.778;2023-10-19T17:12:00;13.90;99.90
7784;DHT22;19359;51.402;6.778;2023-10-19T17:14:27;13.90;99.90
7784;DHT22;19359;51.402;6.778;2023-10-19T17:16:53;13.80;99.90
7784;DHT22;19359;51.402;6.778;2023-10-19T17:21:51;13.70;99.90
7784;DHT22;19359;51.402;6.778;2023-10-19T17:26:45;13.60;99.90
7784;DHT22;19359;51.402;6.778;2023-10-19T17:29:12;13.60;1.00
7784;DHT22;19359;51.402;6.778;2023-10-19T17:31:39;13.60;1.00
7784;DHT22;19359;51.402;6.778;2023-10-19T17:36:34;13.50;99.90
7784;DHT22;19359;51.402;6.778;2023-10-19T17:43:55;13.40;99.90
7784;DHT22;19359;51.402;6.778;2023-10-19T17:51:16;13.30;1.00
7784;DHT22;19359;51.402;6.778;2023-10-19T17:56:13;13.20;1.00
7784;DHT22;19359;51.402;6.778;2023-10-19T18:01:07;13.10;1.00
7784;DHT22;19359;51.402;6.778;2023-10-19T18:03:37;13.10;1.00
7784;DHT22;19359;51.402;6.778;2023-10-19T18:06:06;13.10;1.00
7784;DHT22;19359;51.402;6.778;2023-10-19T18:08:33;13.10;1.00
7784;DHT22;19359;51.402;6.778;2023-10-19T18:15:57;13.10;99.90
7784;DHT22;19359;51.402;6.778;2023-10-19T18:18:24;13.10;99.90
7784;DHT22;19359;51.402;6.778;2023-10-19T18:20:51;13.00;99.90
7784;DHT22;19359;51.402;6.778;2023-10-19T18:23:18;12.90;99.90
7784;DHT22;19359;51.402;6.778;2023-10-19T18:30:41;12.80;99.90
7784;DHT22;19359;51.402;6.778;2023-10-19T18:33:08;12.80;99.90
7784;DHT22;19359;51.402;6.778;2023-10-19T18:38:03;12.90;99.90
7784;DHT22;19359;51.402;6.778;2023-10-19T18:43:01;12.80;99.90
7784;DHT22;19359;51.402;6.778;2023-10-19T18:47:57;12.80;99.90
7784;DHT22;19359;51.402;6.778;2023-10-19T18:50:24;12.80;99.90
7784;DHT22;19359;51.402;6.778;2023-10-19T19:00:17;12.70;1.00
7784;DHT22;19359;51.402;6.778;2023-10-19T19:20:07;12.70;1.00
7784;DHT22;19359;51.402;6.778;2023-10-19T19:22:37;12.90;1.00
7784;DHT22;19359;51.402;6.778;2023-10-19T19:25:04;12.90;1.00
7784;DHT22;19359;51.402;6.778;2023-10-19T19:27:31;12.90;1.00
7784;DHT22;19359;51.402;6.778;2023-10-19T19:29:58;12.90;1.00
7784;DHT22;19359;51.402;6.778;2023-10-19T19:37:21;13.40;1.00
7784;DHT22;19359;51.402;6.778;2023-10-19T19:39:48;13.60;1.00
7784;DHT22;19359;51.402;6.778;2023-10-19T19:49:37;13.80;89.30
7784;DHT22;19359;51.402;6.778;2023-10-19T19:52:04;13.70;46.00
7784;DHT22;19359;51.402;6.778;2023-10-19T19:54:32;13.60;99.90
7784;DHT22;19359;51.402;6.778;2023-10-19T19:57:00;13.60;20.20
7784;DHT22;19359;51.402;6.778;2023-10-19T19:59:26;13.60;9.80
7784;DHT22;19359;51.402;6.778;2023-10-19T20:01:54;13.70;99.90
7784;DHT22;19359;51.402;6.778;2023-10-19T20:06:49;13.80;99.90
7784;DHT22;19359;51.402;6.778;2023-10-19T20:11:44;14.00;99.90
7784;DHT22;19359;51.402;6.778;2023-10-19T20:14:11;14.00;99.90
7784;DHT22;19359;51.402;6.778;2023-10-19T20:16:38;13.60;99.90
7784;DHT22;19359;51.402;6.778;2023-10-19T20:19:05;13.90;99.90
7784;DHT22;19359;51.402;6.778;2023-10-19T20:21:31;13.90;99.90
7784;DHT22;19359;51.402;6.778;2023-10-19T20:23:58;13.80;99.90
7784;DHT22;19359;51.402;6.778;2023-10-19T20:26:25;14.00;99.90
7784;DHT22;19359;51.402;6.778;2023-10-19T20:28:54;14.00;99.90
7784;DHT22;19359;51.402;6.778;2023-10-19T20:33:52;14.00;99.90
7784;DHT22;19359;51.402;6.778;2023-10-19T20:36:19;14.00;99.90
7784;DHT22;19359;51.402;6.778;2023-10-19T20:38:46;14.10;99.90
7784;DHT22;19359;51.402;6.778;2023-10-19T20:41:13;14.10;99.90
7784;DHT22;19359;51.402;6.778;2023-10-19T20:43:39;14.10;99.90
7784;DHT22;19359;51.402;6.778;2023-10-19T20:46:10;13.90;99.90
7784;DHT22;19359;51.402;6.778;2023-10-19T20:48:37;14.00;99.90
7784;DHT22;19359;51.402;6.778;2023-10-19T20:51:13;14.00;99.90
7784;DHT22;19359;51.402;6.778;2023-10-19T20:53:40;14.10;99.90
7784;DHT22;19359;51.402;6.778;2023-10-19T20:58:35;14.40;99.90
7784;DHT22;19359;51.402;6.778;2023-10-19T21:01:04;14.10;99.90
7784;DHT22;19359;51.402;6.778;2023-10-19T21:03:32;14.10;99.80
7784;DHT22;19359;51.402;6.778;2023-10-19T21:08:28;14.10;99.90